createdAt,value
2022-08-17T00:02:26.120Z,46.61
2022-08-17T00:04:54.751Z,47.51
2022-08-17T00:07:21.492Z,48.10
2022-08-17T00:09:48.312Z,47.49
2022-08-17T00:12:42.681Z,47.66
2022-08-17T00:15:01.757Z,47.66
2022-08-17T00:17:28.526Z,47.68
2022-08-17T00:19:55.183Z,47.96
2022-08-17T00:22:32.535Z,48.30
2022-08-17T00:25:05.384Z,48.03
2022-08-17T00:27:32.114Z,48.95
2022-08-17T00:29:58.774Z,48.55
2022-08-17T00:33:15.640Z,48.20
2022-08-17T00:35:16.081Z,49.49
2022-08-17T00:37:42.707Z,49.31
2022-08-17T00:40:12.823Z,48.90
2022-08-17T00:42:40.053Z,49.37
2022-08-17T00:45:09.783Z,49.87
2022-08-17T00:47:36.577Z,49.28
2022-08-17T00:50:06.208Z,49.78
2022-08-17T00:52:39.930Z,49.21
2022-08-17T00:55:07.480Z,49.23
2022-08-17T00:57:44.882Z,48.84
2022-08-17T01:00:21.434Z,49.25
2022-08-17T01:02:48.999Z,49.56
2022-08-17T01:05:23.223Z,50.12
2022-08-17T01:07:53.086Z,50.81
2022-08-17T01:11:00.476Z,51.18
2022-08-17T01:13:11.825Z,51.38
2022-08-17T01:15:46.016Z,51.07
2022-08-17T01:18:13.950Z,51.19
2022-08-17T01:20:53.699Z,49.41
2022-08-17T01:23:24.263Z,50.52
2022-08-17T01:25:54.668Z,50.92
2022-08-17T01:28:53.400Z,50.65
2022-08-17T01:31:10.454Z,49.91
2022-08-17T01:33:37.374Z,50.03
2022-08-17T01:36:06.942Z,49.76
2022-08-17T01:38:35.763Z,50.03
2022-08-17T01:41:08.178Z,50.19
2022-08-17T01:43:41.536Z,49.62
2022-08-17T01:46:08.244Z,50.48
2022-08-17T01:48:36.983Z,50.46
2022-08-17T01:51:06.177Z,50.63
2022-08-17T01:53:40.641Z,49.58
2022-08-17T01:56:11.804Z,50.57
2022-08-17T01:58:39.811Z,50.70
2022-08-17T02:01:08.054Z,50.83
2022-08-17T02:03:37.076Z,51.79
2022-08-17T02:06:05.977Z,51.67
2022-08-17T02:09:02.315Z,52.55
2022-08-17T02:11:33.664Z,52.86
2022-08-17T02:14:02.975Z,53.99
2022-08-17T02:16:36.933Z,53.67
2022-08-17T02:19:08.711Z,53.29
2022-08-17T02:21:37.653Z,53.62
2022-08-17T02:24:06.922Z,53.91
2022-08-17T02:26:33.648Z,54.65
2022-08-17T02:29:00.359Z,53.48
2022-08-17T02:31:27.034Z,52.41
2022-08-17T02:33:56.768Z,51.62
2022-08-17T02:36:34.150Z,51.95
2022-08-17T02:39:09.751Z,51.29
2022-08-17T02:41:37.320Z,53.72
2022-08-17T02:44:05.855Z,52.85
2022-08-17T02:46:32.833Z,53.10
2022-08-17T02:48:59.847Z,53.85
2022-08-17T02:51:27.230Z,53.25
2022-08-17T02:54:39.148Z,53.28
2022-08-17T02:56:40.544Z,53.63
2022-08-17T02:59:07.207Z,52.40
2022-08-17T03:01:34.159Z,52.75
2022-08-17T03:04:00.904Z,52.87
2022-08-17T03:06:29.257Z,53.66
2022-08-17T03:08:56.025Z,53.31
2022-08-17T03:11:23.607Z,52.83
2022-08-17T03:13:50.332Z,52.15
2022-08-17T03:16:17.020Z,52.69
2022-08-17T03:18:43.696Z,53.38
2022-08-17T03:21:10.341Z,53.66
2022-08-17T03:23:41.194Z,53.08
2022-08-17T03:26:12.277Z,53.07
2022-08-17T03:28:42.736Z,53.43
2022-08-17T03:31:09.447Z,54.80
2022-08-17T03:33:36.106Z,53.85
2022-08-17T03:36:02.948Z,53.96
2022-08-17T03:38:29.680Z,54.40
2022-08-17T03:41:07.176Z,54.53
2022-08-17T03:43:34.736Z,54.64
2022-08-17T03:46:27.800Z,54.60
2022-08-17T03:49:21.212Z,53.49
2022-08-17T03:52:14.037Z,54.39
2022-08-17T03:55:00.077Z,54.86
2022-08-17T03:57:27.084Z,54.11
2022-08-17T03:59:55.274Z,54.47
2022-08-17T04:02:31.332Z,53.85
2022-08-17T04:04:58.857Z,54.11
2022-08-17T04:07:28.304Z,53.96
2022-08-17T04:09:55.289Z,54.32
2022-08-17T04:12:23.362Z,54.99
2022-08-17T04:14:53.481Z,55.32
2022-08-17T04:17:26.963Z,55.40
2022-08-17T04:19:54.596Z,55.35
2022-08-17T04:22:31.818Z,55.71
2022-08-17T04:25:24.820Z,55.11
2022-08-17T04:27:51.516Z,54.93
2022-08-17T04:30:18.209Z,55.86
2022-08-17T04:33:09.235Z,53.74
2022-08-17T04:35:45.576Z,54.05
2022-08-17T04:38:16.840Z,54.04
2022-08-17T04:41:02.754Z,53.93
2022-08-17T04:43:31.343Z,54.10
2022-08-17T04:46:03.007Z,53.66
2022-08-17T04:48:36.308Z,53.95
2022-08-17T04:51:19.975Z,52.96
2022-08-17T04:53:54.727Z,53.95
2022-08-17T04:56:23.627Z,54.65
2022-08-17T04:58:52.150Z,54.50
2022-08-17T05:01:23.407Z,54.80
2022-08-17T05:03:52.343Z,54.30
2022-08-17T05:06:19.089Z,53.67
2022-08-17T05:08:45.746Z,54.93
2022-08-17T05:11:12.416Z,54.77
2022-08-17T05:13:39.131Z,55.61
2022-08-17T05:16:06.171Z,55.27
2022-08-17T05:18:33.092Z,55.48
2022-08-17T05:20:59.891Z,56.20
2022-08-17T05:23:42.439Z,56.48
2022-08-17T05:26:25.444Z,56.63
2022-08-17T05:28:54.260Z,55.80
2022-08-17T05:31:21.080Z,55.42
2022-08-17T05:33:47.790Z,55.00
2022-08-17T05:36:41.808Z,55.39
2022-08-17T05:39:02.868Z,55.98
2022-08-17T05:41:29.532Z,55.41
2022-08-17T05:43:56.618Z,55.98
2022-08-17T05:46:29.282Z,56.00
2022-08-17T05:49:07.913Z,55.13
2022-08-17T05:51:58.875Z,55.20
2022-08-17T05:54:56.587Z,54.87
2022-08-17T05:57:56.089Z,54.45
2022-08-17T06:00:30.100Z,54.37
2022-08-17T06:03:28.232Z,53.75
2022-08-17T06:06:18.596Z,53.01
2022-08-17T06:09:04.718Z,53.77
2022-08-17T06:11:58.790Z,53.06
2022-08-17T06:14:34.497Z,54.27
2022-08-17T06:17:06.207Z,55.27
2022-08-17T06:19:40.615Z,54.56
2022-08-17T06:22:10.462Z,56.78
2022-08-17T06:24:46.060Z,55.80
2022-08-17T06:27:29.721Z,55.29
2022-08-17T06:29:56.875Z,55.51
2022-08-17T06:32:25.112Z,55.17
2022-08-17T06:34:52.815Z,54.70
2022-08-17T06:37:26.158Z,53.28
2022-08-17T06:40:19.606Z,53.10
2022-08-17T06:43:06.879Z,52.55
2022-08-17T06:45:49.484Z,52.86
2022-08-17T06:48:24.931Z,52.67
2022-08-17T06:50:57.884Z,53.51
2022-08-17T06:53:31.819Z,53.30
2022-08-17T06:56:21.909Z,53.44
2022-08-17T06:58:49.691Z,53.82
2022-08-17T07:01:24.969Z,53.69
2022-08-17T07:04:19.345Z,51.90
2022-08-17T07:06:58.939Z,53.05
2022-08-17T07:09:35.956Z,52.28
2022-08-17T07:12:11.290Z,53.04
2022-08-17T07:14:56.317Z,52.29
2022-08-17T07:17:47.463Z,53.98
2022-08-17T07:20:15.660Z,52.92
2022-08-17T07:23:09.014Z,52.14
2022-08-17T07:25:35.532Z,51.33
2022-08-17T07:28:07.038Z,51.50
2022-08-17T07:30:47.096Z,51.17
2022-08-17T07:33:35.069Z,50.66
2022-08-17T07:36:02.344Z,49.24
2022-08-17T07:38:34.183Z,48.35
2022-08-17T07:41:06.229Z,49.74
2022-08-17T07:43:45.645Z,48.98
2022-08-17T07:46:41.764Z,50.58
2022-08-17T07:49:12.632Z,49.48
2022-08-17T07:51:43.973Z,49.54
2022-08-17T07:54:16.638Z,50.43
2022-08-17T07:56:47.300Z,50.79
2022-08-17T07:59:23.175Z,49.82
2022-08-17T08:01:57.649Z,47.91
2022-08-17T08:07:34.746Z,46.70
2022-08-17T08:10:10.820Z,46.08
2022-08-17T08:12:48.041Z,45.82
2022-08-17T08:15:20.504Z,44.82
2022-08-17T08:17:59.339Z,45.48
2022-08-17T08:20:53.912Z,46.03
2022-08-17T08:23:46.537Z,46.40
2022-08-17T08:26:46.483Z,45.88
2022-08-17T08:29:50.299Z,45.19
2022-08-17T08:32:40.824Z,44.81
2022-08-17T08:35:07.872Z,45.46
2022-08-17T08:37:52.104Z,44.32
2022-08-17T08:40:38.774Z,43.71
2022-08-17T08:43:50.851Z,44.38
2022-08-17T08:46:31.351Z,44.62
2022-08-17T08:50:01.849Z,45.58
2022-08-17T08:52:48.683Z,44.93
2022-08-17T08:55:34.611Z,44.16
2022-08-17T08:58:09.304Z,42.29
2022-08-17T09:00:58.834Z,42.16
2022-08-17T09:04:02.741Z,41.26
2022-08-17T09:06:47.598Z,41.11
2022-08-17T09:09:17.305Z,42.01
2022-08-17T09:12:22.131Z,42.94
2022-08-17T09:15:01.475Z,43.65
2022-08-17T09:17:47.269Z,41.99
2022-08-17T09:20:28.189Z,41.40
2022-08-17T09:23:07.976Z,40.83
2022-08-17T09:25:58.293Z,38.95
2022-08-17T09:28:34.039Z,39.64
2022-08-17T09:31:07.159Z,40.38
2022-08-17T09:33:41.579Z,39.68
2022-08-17T09:36:25.683Z,40.48
2022-08-17T09:39:02.527Z,40.09
2022-08-17T09:41:49.063Z,38.68
2022-08-17T09:44:28.140Z,37.54
2022-08-17T09:47:07.642Z,38.51
2022-08-17T09:49:38.003Z,37.88
2022-08-17T09:52:20.103Z,38.35
2022-08-17T09:54:48.605Z,36.84
2022-08-17T09:57:31.790Z,37.69
2022-08-17T10:00:17.399Z,37.77
2022-08-17T10:03:05.888Z,36.15
2022-08-17T10:05:41.429Z,35.74
2022-08-17T10:08:30.084Z,34.99
2022-08-17T10:11:20.167Z,36.61
2022-08-17T10:14:36.421Z,35.71
2022-08-17T10:17:28.195Z,35.62
2022-08-17T10:20:06.111Z,35.45
2022-08-17T10:23:30.367Z,34.34
2022-08-17T10:26:13.939Z,34.11
2022-08-17T10:28:40.599Z,34.60
2022-08-17T10:34:24.737Z,33.57
2022-08-17T10:37:09.868Z,33.14
2022-08-17T10:39:36.540Z,33.89
2022-08-17T10:42:37.472Z,34.03
2022-08-17T10:45:15.659Z,33.36
2022-08-17T10:48:22.297Z,33.25
2022-08-17T10:51:07.480Z,32.54
2022-08-17T10:53:38.845Z,33.54
2022-08-17T10:56:13.143Z,32.94
2022-08-17T10:58:57.681Z,32.16
2022-08-17T11:01:37.955Z,32.04
2022-08-17T11:04:25.982Z,30.72
2022-08-17T11:07:06.704Z,31.43
2022-08-17T11:09:54.782Z,31.21
2022-08-17T11:12:45.636Z,31.02
2022-08-17T11:15:19.718Z,30.42
2022-08-17T11:18:11.548Z,30.90
2022-08-17T11:21:07.234Z,30.59
2022-08-17T11:23:45.012Z,30.33
2022-08-17T11:26:25.961Z,29.71
2022-08-17T11:29:05.305Z,29.27
2022-08-17T11:31:42.592Z,28.87
2022-08-17T11:34:17.435Z,30.27
2022-08-17T11:36:56.124Z,30.16
2022-08-17T11:39:28.878Z,29.77
2022-08-17T11:42:04.831Z,29.93
2022-08-17T11:44:53.635Z,28.96
2022-08-17T11:48:08.991Z,27.88
2022-08-17T11:51:22.065Z,28.47
2022-08-17T11:53:48.665Z,28.10
2022-08-17T11:56:34.916Z,27.58
2022-08-17T11:59:02.092Z,28.78
2022-08-17T12:01:31.573Z,28.55
2022-08-17T12:04:29.224Z,28.16
2022-08-17T12:07:19.863Z,29.03
2022-08-17T12:09:51.018Z,27.78
2022-08-17T12:12:22.859Z,27.86
2022-08-17T12:15:10.218Z,28.09
2022-08-17T12:17:40.577Z,28.04
2022-08-17T12:20:30.194Z,28.16
2022-08-17T12:23:14.779Z,27.12
2022-08-17T12:26:07.843Z,27.94
2022-08-17T12:28:38.707Z,28.54
2022-08-17T12:31:15.512Z,29.00
2022-08-17T12:33:45.536Z,28.06
2022-08-17T12:36:18.810Z,26.99
2022-08-17T12:38:53.936Z,28.40
2022-08-17T12:41:34.252Z,28.64
2022-08-17T12:44:03.752Z,28.54
2022-08-17T12:46:46.912Z,27.33
2022-08-17T12:49:22.970Z,27.51
2022-08-17T12:51:51.690Z,27.42
2022-08-17T12:54:40.408Z,27.71
2022-08-17T12:57:20.731Z,27.24
2022-08-17T12:59:55.352Z,28.86
2022-08-17T13:02:30.149Z,27.33
2022-08-17T13:05:00.023Z,26.65
2022-08-17T13:07:29.710Z,27.51
2022-08-17T13:09:56.550Z,25.87
2022-08-17T13:12:29.314Z,27.00
2022-08-17T13:14:57.593Z,25.75
2022-08-17T13:17:35.593Z,25.93
2022-08-17T13:20:05.092Z,26.32
2022-08-17T13:22:32.607Z,25.99
2022-08-17T13:25:07.420Z,23.64
2022-08-17T13:27:34.343Z,25.57
2022-08-17T13:30:05.596Z,24.66
2022-08-17T13:32:33.391Z,25.15
2022-08-17T13:35:15.261Z,24.70
2022-08-17T13:37:59.672Z,25.08
2022-08-17T13:40:30.631Z,24.06
2022-08-17T13:42:58.292Z,24.16
2022-08-17T13:45:40.138Z,24.54
2022-08-17T13:48:08.872Z,25.41
2022-08-17T13:50:46.386Z,24.77
2022-08-17T13:53:40.167Z,22.30
2022-08-17T13:56:37.760Z,23.24
2022-08-17T13:59:36.278Z,23.29
2022-08-17T14:02:17.391Z,22.65
2022-08-17T14:04:46.334Z,23.25
2022-08-17T14:07:13.087Z,23.65
2022-08-17T14:09:55.214Z,22.34
2022-08-17T14:12:25.615Z,23.26
2022-08-17T14:14:55.140Z,23.08
2022-08-17T14:17:23.086Z,23.17
2022-08-17T14:19:51.053Z,22.94
2022-08-17T14:22:32.226Z,22.13
2022-08-17T14:25:01.769Z,21.87
2022-08-17T14:27:31.859Z,23.59
2022-08-17T14:29:58.559Z,22.19
2022-08-17T14:32:29.327Z,22.17
2022-08-17T14:34:57.826Z,22.36
2022-08-17T14:37:27.930Z,24.12
2022-08-17T14:40:01.330Z,22.98
2022-08-17T14:42:32.589Z,22.71
2022-08-17T14:45:00.299Z,23.28
2022-08-17T14:47:27.679Z,23.34
2022-08-17T14:49:54.342Z,23.33
2022-08-17T14:52:21.793Z,22.05
2022-08-17T14:54:51.416Z,23.39
2022-08-17T14:57:33.976Z,23.33
2022-08-17T15:00:02.877Z,22.93
2022-08-17T15:02:31.098Z,22.30
2022-08-17T15:05:02.691Z,22.84
2022-08-17T15:07:30.728Z,22.19
2022-08-17T15:10:00.755Z,23.05
2022-08-17T15:12:32.309Z,23.09
2022-08-17T15:15:01.118Z,23.10
2022-08-17T15:17:44.578Z,22.67
2022-08-17T15:20:21.647Z,22.27
2022-08-17T15:22:55.532Z,23.31
2022-08-17T15:25:24.618Z,23.05
2022-08-17T15:27:51.577Z,23.39
2022-08-17T15:30:18.869Z,23.39
2022-08-17T15:32:51.405Z,22.77
2022-08-17T15:35:27.727Z,23.36
2022-08-17T15:38:11.166Z,22.71
2022-08-17T15:40:47.095Z,23.09
2022-08-17T15:43:24.803Z,21.92
2022-08-17T15:46:06.200Z,21.92
2022-08-17T15:48:43.747Z,22.26
2022-08-17T15:51:18.882Z,22.27
2022-08-17T15:53:50.359Z,22.66
2022-08-17T15:56:17.869Z,22.04
2022-08-17T15:58:46.744Z,21.88
2022-08-17T16:01:42.274Z,22.75
2022-08-17T16:04:06.614Z,22.96
2022-08-17T16:06:34.620Z,22.37
2022-08-17T16:09:01.300Z,21.93
2022-08-17T16:11:27.947Z,22.38
2022-08-17T16:13:56.030Z,21.87
2022-08-17T16:16:23.788Z,22.53
2022-08-17T16:18:58.621Z,22.81
2022-08-17T16:21:26.753Z,22.57
2022-08-17T16:24:01.027Z,22.92
2022-08-17T16:26:29.874Z,22.91
2022-08-17T16:28:59.225Z,22.84
2022-08-17T16:31:26.707Z,23.07
2022-08-17T16:34:15.674Z,22.87
2022-08-17T16:36:41.685Z,22.09
2022-08-17T16:39:22.949Z,23.87
2022-08-17T16:41:50.401Z,23.74
2022-08-17T16:44:21.158Z,26.09
2022-08-17T16:46:49.045Z,26.41
2022-08-17T16:49:31.940Z,24.80
2022-08-17T16:52:04.371Z,25.27
2022-08-17T16:54:31.541Z,25.98
2022-08-17T16:56:58.225Z,24.63
2022-08-17T16:59:31.090Z,25.38
2022-08-17T17:02:10.960Z,25.06
2022-08-17T17:04:46.441Z,25.14
2022-08-17T17:07:33.830Z,24.87
2022-08-17T17:10:11.232Z,25.31
2022-08-17T17:13:01.571Z,25.20
2022-08-17T17:15:33.819Z,25.31
2022-08-17T17:18:07.133Z,25.81
2022-08-17T17:20:45.848Z,25.37
2022-08-17T17:23:41.156Z,25.09
2022-08-17T17:26:43.293Z,25.76
2022-08-17T17:29:14.715Z,25.66
2022-08-17T17:31:51.036Z,25.17
2022-08-17T17:34:18.519Z,24.75
2022-08-17T17:36:55.112Z,26.01
2022-08-17T17:39:49.731Z,25.75
2022-08-17T17:42:22.371Z,26.91
2022-08-17T17:44:54.391Z,26.96
2022-08-17T17:47:21.498Z,28.02
2022-08-17T17:49:51.270Z,27.77
2022-08-17T17:52:42.332Z,27.58
2022-08-17T17:55:20.931Z,28.15
2022-08-17T17:58:02.859Z,28.16
2022-08-17T18:00:47.854Z,27.78
2022-08-17T18:03:26.391Z,27.57
2022-08-17T18:06:14.922Z,28.21
2022-08-17T18:08:44.313Z,27.96
2022-08-17T18:11:25.067Z,28.55
2022-08-17T18:14:06.888Z,28.50
2022-08-17T18:16:35.055Z,28.79
2022-08-17T18:19:01.705Z,29.22
2022-08-17T18:21:53.262Z,28.68
2022-08-17T18:24:38.515Z,28.99
2022-08-17T18:27:20.378Z,29.00
2022-08-17T18:29:49.103Z,30.25
2022-08-17T18:32:28.321Z,29.83
2022-08-17T18:35:10.224Z,30.54
2022-08-17T18:37:50.422Z,30.92
2022-08-17T18:40:17.280Z,30.82
2022-08-17T18:42:55.592Z,31.17
2022-08-17T18:45:42.954Z,32.13
2022-08-17T18:48:32.912Z,31.39
2022-08-17T18:51:40.573Z,31.39
2022-08-17T18:54:18.302Z,32.38
2022-08-17T18:56:54.366Z,32.44
2022-08-17T18:59:21.361Z,33.07
2022-08-17T19:01:59.288Z,32.85
2022-08-17T19:04:39.277Z,32.99
2022-08-17T19:07:08.856Z,33.47
2022-08-17T19:09:48.567Z,33.81
2022-08-17T19:12:34.015Z,32.46
2022-08-17T19:15:02.041Z,34.12
2022-08-17T19:17:59.435Z,32.65
2022-08-17T19:20:29.124Z,32.95
2022-08-17T19:23:01.541Z,33.50
2022-08-17T19:25:34.888Z,33.58
2022-08-17T19:28:21.908Z,33.15
2022-08-17T19:30:54.798Z,33.58
2022-08-17T19:33:21.700Z,33.96
2022-08-17T19:36:00.733Z,33.88
2022-08-17T19:38:50.290Z,34.03
2022-08-17T19:41:28.305Z,38.50
2022-08-17T19:44:19.163Z,36.23
2022-08-17T19:47:01.662Z,35.44
2022-08-17T19:49:45.687Z,36.42
2022-08-17T19:52:37.742Z,36.44
2022-08-17T19:55:20.704Z,37.14
2022-08-17T19:57:56.396Z,36.91
2022-08-17T20:00:23.462Z,36.92
2022-08-17T20:03:05.874Z,36.55
2022-08-17T20:06:09.199Z,37.23
2022-08-17T20:08:57.384Z,42.13
2022-08-17T20:11:36.684Z,41.11
2022-08-17T20:14:19.486Z,42.11
2022-08-17T20:16:48.621Z,39.25
2022-08-17T20:19:28.124Z,38.82
2022-08-17T20:22:17.687Z,38.51
2022-08-17T20:25:06.383Z,37.77
2022-08-17T20:28:05.646Z,37.68
2022-08-17T20:30:39.122Z,37.88
2022-08-17T20:33:21.435Z,39.12
2022-08-17T20:36:00.317Z,38.97
2022-08-17T20:38:43.599Z,37.76
2022-08-17T20:41:16.640Z,37.26
2022-08-17T20:44:05.176Z,37.93
2022-08-17T20:46:37.990Z,37.97
2022-08-17T20:49:23.567Z,38.26
2022-08-17T20:52:07.737Z,38.21
2022-08-17T20:54:44.232Z,38.02
2022-08-17T20:57:31.264Z,37.28
2022-08-17T21:00:15.718Z,37.87
2022-08-17T21:02:49.697Z,38.11
2022-08-17T21:05:37.212Z,37.59
2022-08-17T21:08:16.591Z,38.20
2022-08-17T21:10:45.514Z,38.66
2022-08-17T21:13:13.489Z,38.92
2022-08-17T21:15:50.302Z,38.52
2022-08-17T21:18:32.141Z,40.15
2022-08-17T21:21:07.759Z,39.61
2022-08-17T21:23:49.863Z,40.49
2022-08-17T21:26:31.111Z,40.77
2022-08-17T21:29:31.991Z,40.75
2022-08-17T21:31:59.639Z,41.49
2022-08-17T21:34:36.410Z,42.45
2022-08-17T21:37:23.577Z,40.04
2022-08-17T21:40:14.211Z,40.27
2022-08-17T21:43:20.090Z,41.37
2022-08-17T21:45:56.721Z,40.29
2022-08-17T21:48:27.083Z,40.83
2022-08-17T21:51:18.266Z,40.82
2022-08-17T21:53:49.420Z,42.17
2022-08-17T21:56:29.480Z,42.26
2022-08-17T21:59:00.688Z,41.02
2022-08-17T22:01:37.278Z,41.52
2022-08-17T22:04:11.449Z,41.68
2022-08-17T22:06:59.331Z,41.88
2022-08-17T22:09:35.807Z,40.97
2022-08-17T22:12:07.903Z,41.06
2022-08-17T22:14:52.867Z,42.06
2022-08-17T22:17:46.643Z,42.33
2022-08-17T22:20:19.298Z,42.86
2022-08-17T22:23:04.258Z,42.98
2022-08-17T22:25:34.047Z,43.49
2022-08-17T22:28:04.002Z,42.71
2022-08-17T22:30:35.462Z,42.29
2022-08-17T22:33:40.485Z,41.97
2022-08-17T22:36:19.645Z,41.70
2022-08-17T22:38:50.094Z,42.14
2022-08-17T22:41:34.840Z,41.91
2022-08-17T22:44:31.971Z,42.46
2022-08-17T22:47:00.883Z,43.43
2022-08-17T22:49:53.161Z,42.72
2022-08-17T22:52:32.250Z,42.66
2022-08-17T22:55:34.543Z,43.15
2022-08-17T22:58:20.591Z,43.68
2022-08-17T23:00:49.176Z,44.63
2022-08-17T23:03:20.105Z,43.13
2022-08-17T23:06:02.720Z,42.97
2022-08-17T23:08:30.605Z,42.98
2022-08-17T23:11:00.406Z,43.41
2022-08-17T23:13:27.809Z,43.34
2022-08-17T23:15:54.503Z,43.24
2022-08-17T23:18:23.445Z,43.15
2022-08-17T23:20:50.295Z,43.75
2022-08-17T23:23:23.424Z,43.40
2022-08-17T23:25:50.295Z,41.69
2022-08-17T23:28:16.991Z,43.43
2022-08-17T23:30:44.959Z,43.48
2022-08-17T23:33:25.631Z,42.93
2022-08-17T23:35:53.634Z,43.69
2022-08-17T23:38:20.275Z,44.54
2022-08-17T23:40:46.927Z,43.99
2022-08-17T23:43:25.370Z,43.96
2022-08-17T23:45:56.210Z,44.66
2022-08-17T23:48:35.938Z,45.41
2022-08-17T23:51:09.204Z,44.89
2022-08-17T23:53:40.273Z,44.83
2022-08-17T23:56:10.006Z,45.44
2022-08-17T23:58:39.301Z,45.39
